sensor_id;sensor_type;location;lat;lon;timestamp;pressure;altitude;pressure_sealevel;temperature;humidity
64713;BME280;51140;45.340;5.980;2023-12-22T00:01:03;98405.44;;;7.09;100.00
64713;BME280;51140;45.340;5.980;2023-12-22T00:03:29;98418.94;;;7.24;100.00
64713;BME280;51140;45.340;5.980;2023-12-22T00:05:54;98421.81;;;7.11;100.00
64713;BME280;51140;45.340;5.980;2023-12-22T00:08:19;98392.06;;;6.36;100.00
64713;BME280;51140;45.340;5.980;2023-12-22T00:10:45;98387.25;;;6.09;100.00
64713;BME280;51140;45.340;5.980;2023-12-22T00:13:10;98362.00;;;6.88;100.00
64713;BME280;51140;45.340;5.980;2023-12-22T00:15:35;98348.97;;;6.81;100.00
64713;BME280;51140;45.340;5.980;2023-12-22T00:18:01;98345.63;;;6.34;100.00
64713;BME280;51140;45.340;5.980;2023-12-22T00:20:26;98348.28;;;6.23;100.00
64713;BME280;51140;45.340;5.980;2023-12-22T00:22:52;98351.03;;;6.28;100.00
64713;BME280;51140;45.340;5.980;2023-12-22T00:25:17;98358.72;;;6.29;100.00
64713;BME280;51140;45.340;5.980;2023-12-22T00:27:42;98384.97;;;6.24;100.00
64713;BME280;51140;45.340;5.980;2023-12-22T00:30:08;98386.81;;;6.12;100.00
64713;BME280;51140;45.340;5.980;2023-12-22T00:32:34;98403.88;;;6.21;100.00
64713;BME280;51140;45.340;5.980;2023-12-22T00:34:59;98430.91;;;6.28;100.00
64713;BME280;51140;45.340;5.980;2023-12-22T00:37:24;98441.09;;;6.25;100.00
64713;BME280;51140;45.340;5.980;2023-12-22T00:39:50;98436.19;;;6.40;100.00
64713;BME280;51140;45.340;5.980;2023-12-22T00:42:15;98406.16;;;6.53;100.00
64713;BME280;51140;45.340;5.980;2023-12-22T00:44:40;98388.13;;;6.61;100.00
64713;BME280;51140;45.340;5.980;2023-12-22T00:47:06;98364.91;;;6.86;100.00
64713;BME280;51140;45.340;5.980;2023-12-22T00:49:31;98373.50;;;7.22;100.00
64713;BME280;51140;45.340;5.980;2023-12-22T00:51:56;98375.31;;;7.21;100.00
64713;BME280;51140;45.340;5.980;2023-12-22T00:54:22;98364.84;;;6.98;100.00
64713;BME280;51140;45.340;5.980;2023-12-22T00:56:47;98367.38;;;6.65;100.00
64713;BME280;51140;45.340;5.980;2023-12-22T00:59:12;98370.81;;;6.54;100.00
64713;BME280;51140;45.340;5.980;2023-12-22T01:01:38;98372.88;;;6.52;100.00
64713;BME280;51140;45.340;5.980;2023-12-22T01:04:03;98389.53;;;6.52;100.00
64713;BME280;51140;45.340;5.980;2023-12-22T01:06:29;98378.72;;;6.54;100.00
64713;BME280;51140;45.340;5.980;2023-12-22T01:08:54;98373.69;;;6.64;100.00
64713;BME280;51140;45.340;5.980;2023-12-22T01:11:19;98388.31;;;6.71;100.00
64713;BME280;51140;45.340;5.980;2023-12-22T01:13:45;98394.50;;;6.77;100.00
64713;BME280;51140;45.340;5.980;2023-12-22T01:16:10;98404.13;;;6.83;100.00
64713;BME280;51140;45.340;5.980;2023-12-22T01:18:36;98425.63;;;6.63;100.00
64713;BME280;51140;45.340;5.980;2023-12-22T01:21:01;98448.00;;;6.61;100.00
64713;BME280;51140;45.340;5.980;2023-12-22T01:23:26;98452.09;;;6.57;100.00
64713;BME280;51140;45.340;5.980;2023-12-22T01:25:52;98448.81;;;6.50;100.00
64713;BME280;51140;45.340;5.980;2023-12-22T01:28:17;98446.28;;;6.55;100.00
64713;BME280;51140;45.340;5.980;2023-12-22T01:30:43;98451.09;;;6.58;100.00
64713;BME280;51140;45.340;5.980;2023-12-22T01:33:08;98452.81;;;6.41;100.00
64713;BME280;51140;45.340;5.980;2023-12-22T01:35:33;98447.09;;;6.32;100.00
64713;BME280;51140;45.340;5.980;2023-12-22T01:37:59;98441.56;;;6.33;100.00
64713;BME280;51140;45.340;5.980;2023-12-22T01:40:24;98442.72;;;6.38;100.00
64713;BME280;51140;45.340;5.980;2023-12-22T01:42:50;98444.91;;;6.41;100.00
64713;BME280;51140;45.340;5.980;2023-12-22T01:45:15;98461.63;;;6.46;100.00
64713;BME280;51140;45.340;5.980;2023-12-22T01:47:41;98467.81;;;6.40;100.00
64713;BME280;51140;45.340;5.980;2023-12-22T01:50:08;98461.53;;;6.41;100.00
64713;BME280;51140;45.340;5.980;2023-12-22T01:52:37;98472.28;;;6.51;100.00
64713;BME280;51140;45.340;5.980;2023-12-22T01:55:03;98478.47;;;6.57;100.00
64713;BME280;51140;45.340;5.980;2023-12-22T01:57:29;98474.13;;;6.51;100.00
64713;BME280;51140;45.340;5.980;2023-12-22T01:59:56;98470.00;;;6.78;100.00
64713;BME280;51140;45.340;5.980;2023-12-22T02:02:22;98477.44;;;6.93;100.00
64713;BME280;51140;45.340;5.980;2023-12-22T02:04:47;98488.34;;;6.84;100.00
64713;BME280;51140;45.340;5.980;2023-12-22T02:07:13;98493.41;;;6.63;100.00
64713;BME280;51140;45.340;5.980;2023-12-22T02:09:38;98506.69;;;6.68;100.00
64713;BME280;51140;45.340;5.980;2023-12-22T02:12:04;98505.56;;;6.52;100.00
64713;BME280;51140;45.340;5.980;2023-12-22T02:14:30;98498.31;;;6.59;100.00
64713;BME280;51140;45.340;5.980;2023-12-22T02:22:04;98492.00;;;6.83;100.00
64713;BME280;51140;45.340;5.980;2023-12-22T02:24:29;98455.59;;;6.97;100.00
64713;BME280;51140;45.340;5.980;2023-12-22T02:29:42;98427.50;;;7.31;100.00
64713;BME280;51140;45.340;5.980;2023-12-22T02:32:12;98411.38;;;7.16;100.00
64713;BME280;51140;45.340;5.980;2023-12-22T02:34:41;98405.53;;;7.14;100.00
64713;BME280;51140;45.340;5.980;2023-12-22T02:37:09;98392.84;;;6.99;100.00
64713;BME280;51140;45.340;5.980;2023-12-22T02:39:35;98392.00;;;7.10;100.00
64713;BME280;51140;45.340;5.980;2023-12-22T02:42:03;98385.03;;;7.04;100.00
64713;BME280;51140;45.340;5.980;2023-12-22T02:44:29;98380.19;;;7.13;100.00
64713;BME280;51140;45.340;5.980;2023-12-22T02:46:54;98405.88;;;6.77;100.00
64713;BME280;51140;45.340;5.980;2023-12-22T02:49:20;98404.06;;;6.55;100.00
64713;BME280;51140;45.340;5.980;2023-12-22T02:51:45;98411.34;;;6.36;100.00
64713;BME280;51140;45.340;5.980;2023-12-22T02:54:10;98415.69;;;6.30;100.00
64713;BME280;51140;45.340;5.980;2023-12-22T02:56:36;98408.00;;;6.41;100.00
64713;BME280;51140;45.340;5.980;2023-12-22T02:59:01;98405.16;;;6.19;100.00
64713;BME280;51140;45.340;5.980;2023-12-22T03:01:27;98389.88;;;6.09;100.00
64713;BME280;51140;45.340;5.980;2023-12-22T03:03:52;98382.78;;;6.45;100.00
64713;BME280;51140;45.340;5.980;2023-12-22T03:06:17;98389.41;;;6.47;100.00
64713;BME280;51140;45.340;5.980;2023-12-22T03:08:43;98389.41;;;6.47;100.00
64713;BME280;51140;45.340;5.980;2023-12-22T03:11:08;98403.13;;;6.72;100.00
64713;BME280;51140;45.340;5.980;2023-12-22T03:13:33;98409.56;;;6.65;100.00
64713;BME280;51140;45.340;5.980;2023-12-22T03:15:59;98406.78;;;6.71;100.00
64713;BME280;51140;45.340;5.980;2023-12-22T03:18:24;98410.13;;;6.78;100.00
64713;BME280;51140;45.340;5.980;2023-12-22T03:20:49;98403.22;;;6.77;100.00
64713;BME280;51140;45.340;5.980;2023-12-22T03:23:15;98404.59;;;6.80;100.00
64713;BME280;51140;45.340;5.980;2023-12-22T03:25:40;98402.28;;;6.95;100.00
64713;BME280;51140;45.340;5.980;2023-12-22T03:28:05;98386.81;;;6.87;100.00
64713;BME280;51140;45.340;5.980;2023-12-22T03:30:31;98378.69;;;6.65;100.00
64713;BME280;51140;45.340;5.980;2023-12-22T03:32:56;98377.06;;;6.87;100.00
64713;BME280;51140;45.340;5.980;2023-12-22T03:35:21;98401.53;;;6.71;100.00
64713;BME280;51140;45.340;5.980;2023-12-22T03:37:47;98402.34;;;6.60;100.00
64713;BME280;51140;45.340;5.980;2023-12-22T03:40:12;98397.19;;;6.42;100.00
64713;BME280;51140;45.340;5.980;2023-12-22T03:42:37;98411.19;;;6.43;100.00
64713;BME280;51140;45.340;5.980;2023-12-22T03:45:03;98406.84;;;6.37;100.00
64713;BME280;51140;45.340;5.980;2023-12-22T03:47:29;98406.38;;;6.40;100.00
64713;BME280;51140;45.340;5.980;2023-12-22T03:49:54;98387.47;;;6.31;100.00
64713;BME280;51140;45.340;5.980;2023-12-22T03:52:19;98373.50;;;6.30;100.00
64713;BME280;51140;45.340;5.980;2023-12-22T03:54:45;98388.97;;;6.27;100.00
64713;BME280;51140;45.340;5.980;2023-12-22T03:57:10;98393.09;;;6.34;100.00
64713;BME280;51140;45.340;5.980;2023-12-22T03:59:35;98395.28;;;6.14;100.00
64713;BME280;51140;45.340;5.980;2023-12-22T04:02:01;98398.94;;;6.02;100.00
64713;BME280;51140;45.340;5.980;2023-12-22T04:04:27;98390.47;;;6.23;100.00
64713;BME280;51140;45.340;5.980;2023-12-22T04:06:53;98384.72;;;6.38;100.00
64713;BME280;51140;45.340;5.980;2023-12-22T04:09:19;98399.81;;;6.54;100.00
64713;BME280;51140;45.340;5.980;2023-12-22T04:11:44;98387.13;;;6.39;100.00
64713;BME280;51140;45.340;5.980;2023-12-22T04:14:10;98398.69;;;6.50;100.00
64713;BME280;51140;45.340;5.980;2023-12-22T04:16:38;98399.59;;;6.67;100.00
64713;BME280;51140;45.340;5.980;2023-12-22T04:19:03;98401.50;;;6.83;100.00
64713;BME280;51140;45.340;5.980;2023-12-22T04:21:29;98396.22;;;6.83;100.00
64713;BME280;51140;45.340;5.980;2023-12-22T04:23:55;98399.66;;;6.83;100.00
64713;BME280;51140;45.340;5.980;2023-12-22T04:26:20;98397.03;;;6.83;100.00
64713;BME280;51140;45.340;5.980;2023-12-22T04:28:45;98397.00;;;6.95;100.00
64713;BME280;51140;45.340;5.980;2023-12-22T04:31:11;98397.97;;;7.06;100.00
64713;BME280;51140;45.340;5.980;2023-12-22T04:33:36;98398.69;;;7.01;100.00
64713;BME280;51140;45.340;5.980;2023-12-22T04:36:01;98387.22;;;6.67;100.00
64713;BME280;51140;45.340;5.980;2023-12-22T04:38:27;98390.69;;;6.45;100.00
64713;BME280;51140;45.340;5.980;2023-12-22T04:40:52;98389.06;;;6.55;100.00
64713;BME280;51140;45.340;5.980;2023-12-22T04:43:18;98419.09;;;6.43;100.00
64713;BME280;51140;45.340;5.980;2023-12-22T04:45:43;98425.88;;;6.50;100.00
64713;BME280;51140;45.340;5.980;2023-12-22T04:48:09;98436.06;;;6.58;100.00
64713;BME280;51140;45.340;5.980;2023-12-22T04:50:34;98438.91;;;6.57;100.00
64713;BME280;51140;45.340;5.980;2023-12-22T04:52:59;98431.59;;;6.59;100.00
64713;BME280;51140;45.340;5.980;2023-12-22T04:55:25;98447.63;;;6.69;100.00
64713;BME280;51140;45.340;5.980;2023-12-22T04:57:50;98443.94;;;6.93;100.00
64713;BME280;51140;45.340;5.980;2023-12-22T05:00:16;98456.88;;;6.95;100.00
64713;BME280;51140;45.340;5.980;2023-12-22T05:02:41;98450.91;;;6.99;100.00
64713;BME280;51140;45.340;5.980;2023-12-22T05:05:07;98450.56;;;7.07;100.00
64713;BME280;51140;45.340;5.980;2023-12-22T05:07:33;98440.47;;;7.04;100.00
64713;BME280;51140;45.340;5.980;2023-12-22T05:09:58;98459.97;;;7.03;100.00
64713;BME280;51140;45.340;5.980;2023-12-22T05:12:24;98474.69;;;6.99;100.00
64713;BME280;51140;45.340;5.980;2023-12-22T05:14:49;98494.16;;;6.98;100.00
64713;BME280;51140;45.340;5.980;2023-12-22T05:17:14;98488.09;;;6.98;100.00
64713;BME280;51140;45.340;5.980;2023-12-22T05:19:40;98503.81;;;7.04;100.00
64713;BME280;51140;45.340;5.980;2023-12-22T05:22:05;98492.09;;;7.00;100.00
64713;BME280;51140;45.340;5.980;2023-12-22T05:24:30;98485.44;;;7.09;100.00
64713;BME280;51140;45.340;5.980;2023-12-22T05:26:56;98467.56;;;7.28;100.00
64713;BME280;51140;45.340;5.980;2023-12-22T05:29:21;98480.50;;;7.13;100.00
64713;BME280;51140;45.340;5.980;2023-12-22T05:31:46;98493.25;;;7.04;100.00
64713;BME280;51140;45.340;5.980;2023-12-22T05:34:12;98489.91;;;6.97;100.00
64713;BME280;51140;45.340;5.980;2023-12-22T05:36:37;98513.47;;;6.87;100.00
64713;BME280;51140;45.340;5.980;2023-12-22T05:39:03;98527.94;;;6.73;100.00
64713;BME280;51140;45.340;5.980;2023-12-22T05:41:28;98525.84;;;6.52;100.00
64713;BME280;51140;45.340;5.980;2023-12-22T05:43:54;98543.75;;;6.50;100.00
64713;BME280;51140;45.340;5.980;2023-12-22T05:46:19;98556.34;;;6.59;100.00
64713;BME280;51140;45.340;5.980;2023-12-22T05:48:44;98541.19;;;6.43;100.00
64713;BME280;51140;45.340;5.980;2023-12-22T05:51:10;98554.19;;;6.56;100.00
64713;BME280;51140;45.340;5.980;2023-12-22T05:53:39;98550.50;;;6.57;100.00
64713;BME280;51140;45.340;5.980;2023-12-22T05:56:16;98541.22;;;6.55;100.00
64713;BME280;51140;45.340;5.980;2023-12-22T05:58:42;98533.53;;;6.42;100.00
64713;BME280;51140;45.340;5.980;2023-12-22T06:01:07;98534.78;;;6.51;100.00
64713;BME280;51140;45.340;5.980;2023-12-22T06:03:33;98541.00;;;6.45;100.00
64713;BME280;51140;45.340;5.980;2023-12-22T06:05:58;98551.75;;;6.55;100.00
64713;BME280;51140;45.340;5.980;2023-12-22T06:08:23;98554.66;;;6.53;100.00
64713;BME280;51140;45.340;5.980;2023-12-22T06:10:49;98557.84;;;6.55;100.00
64713;BME280;51140;45.340;5.980;2023-12-22T06:13:14;98556.03;;;6.67;100.00
64713;BME280;51140;45.340;5.980;2023-12-22T06:15:40;98555.34;;;6.72;100.00
64713;BME280;51140;45.340;5.980;2023-12-22T06:18:05;98566.69;;;6.61;100.00
64713;BME280;51140;45.340;5.980;2023-12-22T06:20:31;98576.31;;;6.55;100.00
64713;BME280;51140;45.340;5.980;2023-12-22T06:22:56;98568.94;;;6.46;100.00
64713;BME280;51140;45.340;5.980;2023-12-22T06:25:22;98574.66;;;6.43;100.00
64713;BME280;51140;45.340;5.980;2023-12-22T06:27:47;98554.97;;;6.57;100.00
64713;BME280;51140;45.340;5.980;2023-12-22T06:30:13;98543.94;;;6.48;100.00
64713;BME280;51140;45.340;5.980;2023-12-22T06:32:38;98541.44;;;6.42;100.00
64713;BME280;51140;45.340;5.980;2023-12-22T06:35:07;98540.28;;;6.38;100.00
64713;BME280;51140;45.340;5.980;2023-12-22T06:37:32;98552.91;;;6.36;100.00
64713;BME280;51140;45.340;5.980;2023-12-22T06:40:00;98562.63;;;6.35;100.00
64713;BME280;51140;45.340;5.980;2023-12-22T06:42:25;98561.63;;;6.36;100.00
64713;BME280;51140;45.340;5.980;2023-12-22T06:44:50;98554.47;;;6.37;100.00
64713;BME280;51140;45.340;5.980;2023-12-22T06:47:16;98566.88;;;6.36;100.00
64713;BME280;51140;45.340;5.980;2023-12-22T06:49:41;98561.38;;;6.38;100.00
64713;BME280;51140;45.340;5.980;2023-12-22T06:52:06;98567.09;;;6.34;100.00
64713;BME280;51140;45.340;5.980;2023-12-22T06:54:32;98566.66;;;6.38;100.00
64713;BME280;51140;45.340;5.980;2023-12-22T06:56:58;98556.22;;;6.43;100.00
64713;BME280;51140;45.340;5.980;2023-12-22T06:59:24;98564.28;;;6.48;100.00
64713;BME280;51140;45.340;5.980;2023-12-22T07:01:49;98568.84;;;6.41;100.00
64713;BME280;51140;45.340;5.980;2023-12-22T07:04:14;98564.81;;;6.38;100.00
64713;BME280;51140;45.340;5.980;2023-12-22T07:06:40;98573.09;;;6.42;100.00
64713;BME280;51140;45.340;5.980;2023-12-22T07:11:47;98562.41;;;6.48;100.00
64713;BME280;51140;45.340;5.980;2023-12-22T07:14:13;98566.56;;;6.56;100.00
64713;BME280;51140;45.340;5.980;2023-12-22T07:16:38;98547.78;;;6.75;100.00
64713;BME280;51140;45.340;5.980;2023-12-22T07:19:05;98554.16;;;6.68;100.00
64713;BME280;51140;45.340;5.980;2023-12-22T07:21:31;98555.69;;;6.75;100.00
64713;BME280;51140;45.340;5.980;2023-12-22T07:23:56;98546.25;;;6.68;100.00
64713;BME280;51140;45.340;5.980;2023-12-22T07:26:23;98550.28;;;6.59;100.00
64713;BME280;51140;45.340;5.980;2023-12-22T07:28:49;98547.75;;;6.52;100.00
64713;BME280;51140;45.340;5.980;2023-12-22T07:31:15;98560.25;;;6.57;100.00
64713;BME280;51140;45.340;5.980;2023-12-22T07:33:40;98555.41;;;6.54;100.00
64713;BME280;51140;45.340;5.980;2023-12-22T07:36:09;98565.03;;;6.48;100.00
64713;BME280;51140;45.340;5.980;2023-12-22T07:38:36;98570.13;;;6.50;100.00
64713;BME280;51140;45.340;5.980;2023-12-22T07:41:01;98562.09;;;6.45;100.00
64713;BME280;51140;45.340;5.980;2023-12-22T07:43:26;98565.38;;;6.40;100.00
64713;BME280;51140;45.340;5.980;2023-12-22T07:45:54;98550.59;;;6.51;100.00
64713;BME280;51140;45.340;5.980;2023-12-22T07:48:20;98554.19;;;6.56;100.00
64713;BME280;51140;45.340;5.980;2023-12-22T07:50:45;98560.59;;;6.60;100.00
64713;BME280;51140;45.340;5.980;2023-12-22T07:53:11;98551.09;;;6.48;100.00
64713;BME280;51140;45.340;5.980;2023-12-22T07:55:36;98551.88;;;6.60;100.00
64713;BME280;51140;45.340;5.980;2023-12-22T07:58:06;98563.25;;;6.72;100.00
64713;BME280;51140;45.340;5.980;2023-12-22T08:00:32;98572.66;;;6.79;100.00
64713;BME280;51140;45.340;5.980;2023-12-22T08:02:58;98558.53;;;6.74;100.00
64713;BME280;51140;45.340;5.980;2023-12-22T08:05:23;98575.28;;;6.79;100.00
64713;BME280;51140;45.340;5.980;2023-12-22T08:07:49;98570.34;;;6.83;100.00
64713;BME280;51140;45.340;5.980;2023-12-22T08:10:14;98575.28;;;6.79;100.00
64713;BME280;51140;45.340;5.980;2023-12-22T08:12:40;98575.19;;;6.86;100.00
64713;BME280;51140;45.340;5.980;2023-12-22T08:15:06;98569.09;;;6.97;100.00
64713;BME280;51140;45.340;5.980;2023-12-22T08:17:32;98566.00;;;7.00;100.00
64713;BME280;51140;45.340;5.980;2023-12-22T08:19:58;98582.88;;;6.99;100.00
64713;BME280;51140;45.340;5.980;2023-12-22T08:22:24;98574.97;;;6.99;100.00
64713;BME280;51140;45.340;5.980;2023-12-22T08:24:49;98586.44;;;6.93;100.00
64713;BME280;51140;45.340;5.980;2023-12-22T08:27:15;98597.78;;;6.93;100.00
64713;BME280;51140;45.340;5.980;2023-12-22T08:29:40;98610.06;;;6.88;100.00
64713;BME280;51140;45.340;5.980;2023-12-22T08:32:06;98615.69;;;6.91;100.00
64713;BME280;51140;45.340;5.980;2023-12-22T08:34:31;98614.19;;;6.84;100.00
64713;BME280;51140;45.340;5.980;2023-12-22T08:36:57;98616.03;;;6.83;100.00
64713;BME280;51140;45.340;5.980;2023-12-22T08:39:22;98609.94;;;6.83;100.00
64713;BME280;51140;45.340;5.980;2023-12-22T08:41:49;98609.50;;;6.98;100.00
64713;BME280;51140;45.340;5.980;2023-12-22T08:44:15;98609.03;;;7.01;100.00
64713;BME280;51140;45.340;5.980;2023-12-22T08:46:40;98612.94;;;6.98;100.00
64713;BME280;51140;45.340;5.980;2023-12-22T08:49:06;98633.13;;;7.04;100.00
64713;BME280;51140;45.340;5.980;2023-12-22T08:51:32;98631.16;;;7.00;100.00
64713;BME280;51140;45.340;5.980;2023-12-22T08:53:59;98640.72;;;7.01;100.00
64713;BME280;51140;45.340;5.980;2023-12-22T08:56:24;98645.88;;;7.07;100.00
64713;BME280;51140;45.340;5.980;2023-12-22T08:58:52;98654.25;;;7.16;100.00
64713;BME280;51140;45.340;5.980;2023-12-22T09:01:18;98663.91;;;7.10;100.00
64713;BME280;51140;45.340;5.980;2023-12-22T09:03:44;98657.47;;;7.06;100.00
64713;BME280;51140;45.340;5.980;2023-12-22T09:06:17;98673.66;;;7.21;100.00
64713;BME280;51140;45.340;5.980;2023-12-22T09:08:42;98683.31;;;7.27;100.00
64713;BME280;51140;45.340;5.980;2023-12-22T09:11:11;98687.53;;;7.05;100.00
64713;BME280;51140;45.340;5.980;2023-12-22T09:13:36;98691.41;;;7.03;100.00
64713;BME280;51140;45.340;5.980;2023-12-22T09:16:03;98693.63;;;7.17;100.00
64713;BME280;51140;45.340;5.980;2023-12-22T09:18:28;98693.06;;;7.27;100.00
64713;BME280;51140;45.340;5.980;2023-12-22T09:20:54;98691.56;;;7.42;100.00
64713;BME280;51140;45.340;5.980;2023-12-22T09:23:19;98700.41;;;7.48;100.00
64713;BME280;51140;45.340;5.980;2023-12-22T09:25:46;98704.75;;;7.54;100.00
64713;BME280;51140;45.340;5.980;2023-12-22T09:28:11;98704.53;;;7.67;100.00
64713;BME280;51140;45.340;5.980;2023-12-22T09:30:37;98717.97;;;7.66;100.00
64713;BME280;51140;45.340;5.980;2023-12-22T09:33:02;98708.31;;;7.60;100.00
64713;BME280;51140;45.340;5.980;2023-12-22T09:35:28;98715.34;;;7.54;100.00
64713;BME280;51140;45.340;5.980;2023-12-22T09:37:53;98730.25;;;7.60;100.00
64713;BME280;51140;45.340;5.980;2023-12-22T09:40:19;98724.97;;;7.60;100.00
64713;BME280;51140;45.340;5.980;2023-12-22T09:42:45;98733.25;;;7.64;100.00
64713;BME280;51140;45.340;5.980;2023-12-22T09:45:11;98742.56;;;7.66;100.00
64713;BME280;51140;45.340;5.980;2023-12-22T09:47:42;98733.00;;;7.54;100.00
64713;BME280;51140;45.340;5.980;2023-12-22T09:50:09;98752.09;;;7.56;100.00
64713;BME280;51140;45.340;5.980;2023-12-22T09:52:35;98738.66;;;7.45;100.00
64713;BME280;51140;45.340;5.980;2023-12-22T09:55:01;98740.63;;;7.50;100.00
64713;BME280;51140;45.340;5.980;2023-12-22T09:57:30;98738.28;;;7.42;100.00
64713;BME280;51140;45.340;5.980;2023-12-22T09:59:57;98734.19;;;7.58;100.00
64713;BME280;51140;45.340;5.980;2023-12-22T10:02:25;98733.47;;;7.62;100.00
64713;BME280;51140;45.340;5.980;2023-12-22T10:04:50;98730.50;;;7.70;100.00
64713;BME280;51140;45.340;5.980;2023-12-22T10:07:17;98733.59;;;7.79;100.00
64713;BME280;51140;45.340;5.980;2023-12-22T10:09:43;98728.97;;;7.86;100.00
64713;BME280;51140;45.340;5.980;2023-12-22T10:12:11;98739.66;;;7.91;100.00
64713;BME280;51140;45.340;5.980;2023-12-22T10:14:37;98734.50;;;7.96;100.00
64713;BME280;51140;45.340;5.980;2023-12-22T10:17:04;98736.34;;;7.95;100.00
64713;BME280;51140;45.340;5.980;2023-12-22T10:19:29;98718.25;;;8.04;100.00
64713;BME280;51140;45.340;5.980;2023-12-22T10:21:55;98715.03;;;8.02;100.00
64713;BME280;51140;45.340;5.980;2023-12-22T10:24:55;98691.47;;;8.12;100.00
64713;BME280;51140;45.340;5.980;2023-12-22T10:27:21;98685.91;;;8.14;100.00
64713;BME280;51140;45.340;5.980;2023-12-22T10:29:50;98672.56;;;8.20;100.00
64713;BME280;51140;45.340;5.980;2023-12-22T10:32:18;98665.44;;;8.32;100.00
64713;BME280;51140;45.340;5.980;2023-12-22T10:34:44;98663.00;;;8.31;100.00
64713;BME280;51140;45.340;5.980;2023-12-22T10:37:09;98666.47;;;8.20;100.00
64713;BME280;51140;45.340;5.980;2023-12-22T10:39:36;98665.09;;;8.17;100.00
64713;BME280;51140;45.340;5.980;2023-12-22T10:42:02;98654.31;;;8.19;100.00
64713;BME280;51140;45.340;5.980;2023-12-22T10:44:28;98646.22;;;8.25;100.00
64713;BME280;51140;45.340;5.980;2023-12-22T10:46:55;98641.16;;;8.35;100.00
64713;BME280;51140;45.340;5.980;2023-12-22T10:49:21;98643.63;;;8.42;100.00
64713;BME280;51140;45.340;5.980;2023-12-22T10:51:47;98631.78;;;8.44;100.00
64713;BME280;51140;45.340;5.980;2023-12-22T10:54:13;98632.44;;;8.51;100.00
64713;BME280;51140;45.340;5.980;2023-12-22T10:56:39;98618.72;;;8.54;100.00
64713;BME280;51140;45.340;5.980;2023-12-22T10:59:05;98613.91;;;8.68;100.00
64713;BME280;51140;45.340;5.980;2023-12-22T11:01:32;98611.69;;;8.77;100.00
64713;BME280;51140;45.340;5.980;2023-12-22T11:04:03;98603.31;;;8.85;100.00
64713;BME280;51140;45.340;5.980;2023-12-22T11:06:34;98602.22;;;8.81;100.00
64713;BME280;51140;45.340;5.980;2023-12-22T11:09:00;98590.34;;;8.67;100.00
64713;BME280;51140;45.340;5.980;2023-12-22T11:11:33;98593.16;;;8.77;100.00
64713;BME280;51140;45.340;5.980;2023-12-22T11:14:00;98586.28;;;8.76;100.00
64713;BME280;51140;45.340;5.980;2023-12-22T11:16:28;98582.34;;;8.78;100.00
64713;BME280;51140;45.340;5.980;2023-12-22T11:18:54;98587.84;;;8.77;100.00
64713;BME280;51140;45.340;5.980;2023-12-22T11:21:24;98581.38;;;8.84;100.00
64713;BME280;51140;45.340;5.980;2023-12-22T11:23:50;98567.75;;;8.76;100.00
64713;BME280;51140;45.340;5.980;2023-12-22T11:26:22;98562.34;;;8.87;100.00
64713;BME280;51140;45.340;5.980;2023-12-22T11:28:49;98556.88;;;8.94;99.38
64713;BME280;51140;45.340;5.980;2023-12-22T11:31:16;98557.53;;;9.01;98.44
64713;BME280;51140;45.340;5.980;2023-12-22T11:33:46;98560.56;;;9.09;94.32
64713;BME280;51140;45.340;5.980;2023-12-22T11:36:12;98556.44;;;9.18;100.00
64713;BME280;51140;45.340;5.980;2023-12-22T11:38:40;98559.38;;;9.22;100.00
64713;BME280;51140;45.340;5.980;2023-12-22T11:41:09;98550.72;;;9.27;96.41
64713;BME280;51140;45.340;5.980;2023-12-22T11:43:37;98546.22;;;9.27;100.00
64713;BME280;51140;45.340;5.980;2023-12-22T11:46:04;98548.88;;;9.27;100.00
64713;BME280;51140;45.340;5.980;2023-12-22T11:48:30;98549.91;;;9.26;100.00
64713;BME280;51140;45.340;5.980;2023-12-22T11:50:55;98542.22;;;9.25;100.00
64713;BME280;51140;45.340;5.980;2023-12-22T11:53:25;98546.22;;;9.27;100.00
64713;BME280;51140;45.340;5.980;2023-12-22T11:56:06;98550.78;;;9.32;100.00
64713;BME280;51140;45.340;5.980;2023-12-22T12:01:14;98542.72;;;9.43;100.00
64713;BME280;51140;45.340;5.980;2023-12-22T12:03:54;98543.56;;;9.49;100.00
64713;BME280;51140;45.340;5.980;2023-12-22T12:08:52;98548.31;;;9.47;100.00
64713;BME280;51140;45.340;5.980;2023-12-22T12:11:22;98552.75;;;9.41;100.00
64713;BME280;51140;45.340;5.980;2023-12-22T12:13:49;98550.97;;;9.47;100.00
64713;BME280;51140;45.340;5.980;2023-12-22T12:16:18;98540.59;;;9.45;100.00
64713;BME280;51140;45.340;5.980;2023-12-22T12:18:46;98546.75;;;9.51;100.00
64713;BME280;51140;45.340;5.980;2023-12-22T12:21:12;98541.47;;;9.51;100.00
64713;BME280;51140;45.340;5.980;2023-12-22T12:23:38;98536.44;;;9.49;100.00
64713;BME280;51140;45.340;5.980;2023-12-22T12:26:06;98545.34;;;9.43;100.00
64713;BME280;51140;45.340;5.980;2023-12-22T12:28:33;98542.66;;;9.38;100.00
64713;BME280;51140;45.340;5.980;2023-12-22T12:31:08;98542.34;;;9.35;100.00
64713;BME280;51140;45.340;5.980;2023-12-22T12:33:37;98540.22;;;9.37;100.00
64713;BME280;51140;45.340;5.980;2023-12-22T12:36:03;98535.69;;;9.32;100.00
64713;BME280;51140;45.340;5.980;2023-12-22T12:41:53;98536.59;;;9.21;100.00
64713;BME280;51140;45.340;5.980;2023-12-22T12:44:20;98542.63;;;9.16;100.00
64713;BME280;51140;45.340;5.980;2023-12-22T12:46:47;98534.06;;;9.09;100.00
64713;BME280;51140;45.340;5.980;2023-12-22T12:49:13;98547.06;;;9.11;100.00
64713;BME280;51140;45.340;5.980;2023-12-22T12:51:42;98535.38;;;9.07;100.00
64713;BME280;51140;45.340;5.980;2023-12-22T12:54:08;98536.88;;;9.03;100.00
64713;BME280;51140;45.340;5.980;2023-12-22T12:56:43;98540.50;;;8.97;100.00
64713;BME280;51140;45.340;5.980;2023-12-22T12:59:15;98551.19;;;8.85;100.00
64713;BME280;51140;45.340;5.980;2023-12-22T13:01:42;98547.25;;;8.88;100.00
64713;BME280;51140;45.340;5.980;2023-12-22T13:04:08;98542.59;;;8.95;100.00
64713;BME280;51140;45.340;5.980;2023-12-22T13:06:34;98555.84;;;8.95;100.00
64713;BME280;51140;45.340;5.980;2023-12-22T13:08:59;98548.38;;;8.92;100.00
64713;BME280;51140;45.340;5.980;2023-12-22T13:11:30;98561.47;;;8.82;100.00
64713;BME280;51140;45.340;5.980;2023-12-22T13:13:56;98568.69;;;8.86;100.00